Time,TemperatureF,DewpointF,PressureIn,WindDirection,WindDirectionDegrees,WindSpeedMPH,WindSpeedGustMPH,Humidity,HourlyPrecipIn,Conditions,Clouds,dailyrainin,SoftwareType,DateUTC
2013-03-29 00:00:00,26.1,18.3,31.81,SW,225,0.0,0.0,72,0.00,,,0.00,meteohub,2013-03-29 06:00:00,
2013-03-29 00:05:00,26.1,18.3,31.81,SW,225,0.0,0.0,72,0.00,,,0.00,meteohub,2013-03-29 06:05:00,
2013-03-29 00:11:00,25.9,18.1,31.81,South,180,0.0,0.0,72,0.00,,,0.00,meteohub,2013-03-29 06:11:00,
2013-03-29 00:16:00,25.7,18.0,31.81,South,180,0.0,0.0,72,0.00,,,0.00,meteohub,2013-03-29 06:16:00,
2013-03-29 00:22:00,25.5,17.8,31.81,NW,315,0.0,1.0,72,0.00,,,0.00,meteohub,2013-03-29 06:22:00,
2013-03-29 00:27:00,25.2,17.4,31.81,NE,45,0.0,1.0,72,0.00,,,0.00,meteohub,2013-03-29 06:27:00,
2013-03-29 00:32:00,25.0,17.2,31.81,NE,45,0.0,1.0,72,0.00,,,0.00,meteohub,2013-03-29 06:32:00,
2013-03-29 00:37:00,24.6,17.2,31.81,SW,225,1.0,2.0,73,0.00,,,0.00,meteohub,2013-03-29 06:37:00,
2013-03-29 00:42:00,24.6,17.6,31.81,South,180,2.0,2.0,74,0.00,,,0.00,meteohub,2013-03-29 06:42:00,
2013-03-29 00:47:00,24.4,17.4,31.81,South,180,1.0,2.0,74,0.00,,,0.00,meteohub,2013-03-29 06:47:00,
2013-03-29 00:52:00,24.4,17.4,31.81,West,270,2.0,2.0,74,0.00,,,0.00,meteohub,2013-03-29 06:52:00,
2013-03-29 00:57:00,24.3,17.2,31.81,SE,135,1.0,2.0,74,0.00,,,0.00,meteohub,2013-03-29 06:57:00,
2013-03-29 01:02:00,24.3,17.4,31.81,SW,225,0.0,2.0,75,0.00,,,0.00,meteohub,2013-03-29 07:02:00,
2013-03-29 01:07:00,24.1,17.2,31.81,SW,225,1.0,2.0,75,0.00,,,0.00,meteohub,2013-03-29 07:07:00,
2013-03-29 01:12:00,24.1,17.2,31.82,SW,225,2.0,2.0,75,0.00,,,0.00,meteohub,2013-03-29 07:12:00,
2013-03-29 01:17:00,23.9,17.1,31.81,SW,225,1.0,2.0,75,0.00,,,0.00,meteohub,2013-03-29 07:17:00,
2013-03-29 01:22:00,23.7,16.9,31.82,North,0,2.0,2.0,75,0.00,,,0.00,meteohub,2013-03-29 07:22:00,
2013-03-29 01:27:00,23.9,17.1,31.81,North,0,0.0,2.0,75,0.00,,,0.00,meteohub,2013-03-29 07:27:00,
2013-03-29 01:32:00,23.9,17.1,31.82,SW,225,0.0,2.0,75,0.00,,,0.00,meteohub,2013-03-29 07:32:00,
2013-03-29 01:37:00,23.9,17.1,31.81,South,180,2.0,2.0,75,0.00,,,0.00,meteohub,2013-03-29 07:37:00,
2013-03-29 01:42:00,23.9,17.1,31.82,SW,225,2.0,2.0,75,0.00,,,0.00,meteohub,2013-03-29 07:42:00,
2013-03-29 01:48:00,23.9,17.1,31.81,SW,225,0.0,2.0,75,0.00,,,0.00,meteohub,2013-03-29 07:48:00,
2013-03-29 01:53:00,23.9,17.1,31.81,SW,225,1.0,2.0,75,0.00,,,0.00,meteohub,2013-03-29 07:53:00,
2013-03-29 01:59:00,23.7,16.9,31.82,SW,225,0.0,2.0,75,0.00,,,0.00,meteohub,2013-03-29 07:59:00,
2013-03-29 02:04:00,23.7,16.9,31.81,SW,225,1.0,2.0,75,0.00,,,0.00,meteohub,2013-03-29 08:04:00,
2013-03-29 02:10:00,23.5,16.7,31.81,South,180,1.0,2.0,75,0.00,,,0.00,meteohub,2013-03-29 08:10:00,
2013-03-29 02:15:00,23.4,16.7,31.81,SW,225,0.0,2.0,75,0.00,,,0.00,meteohub,2013-03-29 08:15:00,
2013-03-29 02:21:00,23.2,16.5,31.81,NW,315,1.0,2.0,75,0.00,,,0.00,meteohub,2013-03-29 08:21:00,
2013-03-29 02:27:00,22.8,16.3,31.81,NW,315,2.0,2.0,76,0.00,,,0.00,meteohub,2013-03-29 08:27:00,
2013-03-29 02:32:00,22.6,16.2,31.81,SW,225,0.0,2.0,76,0.00,,,0.00,meteohub,2013-03-29 08:32:00,
2013-03-29 02:37:00,22.5,16.0,31.81,SW,225,1.0,2.0,76,0.00,,,0.00,meteohub,2013-03-29 08:37:00,
2013-03-29 02:42:00,22.3,15.8,31.81,NW,315,0.0,2.0,76,0.00,,,0.00,meteohub,2013-03-29 08:42:00,
2013-03-29 02:47:00,22.1,15.6,31.81,SW,225,0.0,2.0,76,0.00,,,0.00,meteohub,2013-03-29 08:47:00,
2013-03-29 02:52:00,21.9,15.4,31.81,NE,45,0.0,2.0,76,0.00,,,0.00,meteohub,2013-03-29 08:52:00,
2013-03-29 02:57:00,21.9,15.4,31.81,North,0,2.0,3.0,76,0.00,,,0.00,meteohub,2013-03-29 08:57:00,
2013-03-29 03:02:00,21.9,15.4,31.81,SE,135,1.0,3.0,76,0.00,,,0.00,meteohub,2013-03-29 09:02:00,
2013-03-29 03:07:00,21.7,15.3,31.81,SW,225,1.0,2.0,76,0.00,,,0.00,meteohub,2013-03-29 09:07:00,
2013-03-29 03:13:00,21.6,15.4,31.81,NE,45,1.0,2.0,77,0.00,,,0.00,meteohub,2013-03-29 09:13:00,
2013-03-29 03:18:00,21.6,15.4,31.81,SW,225,2.0,2.0,77,0.00,,,0.00,meteohub,2013-03-29 09:18:00,
2013-03-29 03:24:00,21.6,15.4,31.80,North,0,0.0,2.0,77,0.00,,,0.00,meteohub,2013-03-29 09:24:00,
2013-03-29 03:29:00,21.4,15.3,31.81,SW,225,2.0,2.0,77,0.00,,,0.00,meteohub,2013-03-29 09:29:00,
2013-03-29 03:35:00,21.6,15.4,31.81,SW,225,2.0,2.0,77,0.00,,,0.00,meteohub,2013-03-29 09:35:00,
2013-03-29 03:40:00,21.7,15.6,31.80,South,180,2.0,2.0,77,0.00,,,0.00,meteohub,2013-03-29 09:40:00,
2013-03-29 03:46:00,21.6,15.4,31.80,SW,225,0.0,2.0,77,0.00,,,0.00,meteohub,2013-03-29 09:46:00,
2013-03-29 03:51:00,21.4,15.3,31.81,NW,315,2.0,2.0,77,0.00,,,0.00,meteohub,2013-03-29 09:51:00,
2013-03-29 03:57:00,21.2,15.1,31.80,South,180,2.0,2.0,77,0.00,,,0.00,meteohub,2013-03-29 09:57:00,
2013-03-29 04:02:00,21.2,15.1,31.81,SW,225,0.0,2.0,77,0.00,,,0.00,meteohub,2013-03-29 10:02:00,
2013-03-29 04:07:00,21.2,15.1,31.80,SW,225,0.0,2.0,77,0.00,,,0.00,meteohub,2013-03-29 10:07:00,
2013-03-29 04:12:00,21.2,15.1,31.80,South,180,0.0,2.0,77,0.00,,,0.00,meteohub,2013-03-29 10:12:00,
2013-03-29 04:17:00,20.8,15.1,31.80,SW,225,2.0,2.0,78,0.00,,,0.00,meteohub,2013-03-29 10:17:00,
2013-03-29 04:23:00,20.7,14.5,31.80,NW,315,2.0,2.0,77,0.00,,,0.00,meteohub,2013-03-29 10:23:00,
2013-03-29 04:28:00,20.5,14.4,31.80,South,180,0.0,2.0,77,0.00,,,0.00,meteohub,2013-03-29 10:28:00,
2013-03-29 04:34:00,20.1,14.0,31.81,SW,225,2.0,2.0,77,0.00,,,0.00,meteohub,2013-03-29 10:34:00,
2013-03-29 04:39:00,20.1,14.4,31.80,North,0,1.0,2.0,78,0.00,,,0.00,meteohub,2013-03-29 10:39:00,
2013-03-29 04:45:00,20.1,14.4,31.80,SW,225,1.0,2.0,78,0.00,,,0.00,meteohub,2013-03-29 10:45:00,
2013-03-29 04:50:00,20.1,14.4,31.80,SW,225,2.0,2.0,78,0.00,,,0.00,meteohub,2013-03-29 10:50:00,
2013-03-29 04:56:00,20.1,14.4,31.80,West,270,2.0,2.0,78,0.00,,,0.00,meteohub,2013-03-29 10:56:00,
2013-03-29 05:01:00,20.1,14.4,31.80,South,180,1.0,2.0,78,0.00,,,0.00,meteohub,2013-03-29 11:01:00,
2013-03-29 05:07:00,20.1,14.4,31.80,North,0,0.0,3.0,78,0.00,,,0.00,meteohub,2013-03-29 11:07:00,
2013-03-29 05:12:00,20.1,14.4,31.80,North,0,2.0,2.0,78,0.00,,,0.00,meteohub,2013-03-29 11:12:00,
2013-03-29 05:17:00,20.1,14.4,31.81,West,270,2.0,2.0,78,0.00,,,0.00,meteohub,2013-03-29 11:17:00,
2013-03-29 05:22:00,19.9,14.2,31.81,SW,225,1.0,2.0,78,0.00,,,0.00,meteohub,2013-03-29 11:22:00,
2013-03-29 05:27:00,19.8,14.0,31.81,South,180,2.0,2.0,78,0.00,,,0.00,meteohub,2013-03-29 11:27:00,
2013-03-29 05:33:00,19.8,14.0,31.81,SW,225,2.0,2.0,78,0.00,,,0.00,meteohub,2013-03-29 11:33:00,
2013-03-29 05:39:00,19.8,14.0,31.81,SW,225,0.0,2.0,78,0.00,,,0.00,meteohub,2013-03-29 11:39:00,
2013-03-29 05:45:00,19.6,14.2,31.81,NW,315,1.0,2.0,79,0.00,,,0.00,meteohub,2013-03-29 11:45:00,
2013-03-29 05:50:00,19.8,14.4,31.81,West,270,1.0,2.0,79,0.00,,,0.00,meteohub,2013-03-29 11:50:00,
2013-03-29 05:56:00,19.9,14.5,31.82,NW,315,2.0,3.0,79,0.00,,,0.00,meteohub,2013-03-29 11:56:00,
2013-03-29 06:02:00,20.3,14.9,31.82,SW,225,1.0,3.0,79,0.00,,,0.00,meteohub,2013-03-29 12:02:00,
2013-03-29 06:07:00,20.3,14.9,31.82,SW,225,1.0,3.0,79,0.00,,,0.00,meteohub,2013-03-29 12:07:00,
2013-03-29 06:12:00,20.5,15.1,31.82,NE,45,2.0,2.0,79,0.00,,,0.00,meteohub,2013-03-29 12:12:00,
2013-03-29 06:17:00,20.7,15.3,31.82,NE,45,0.0,2.0,79,0.00,,,0.00,meteohub,2013-03-29 12:17:00,
2013-03-29 06:22:00,20.8,15.4,31.82,NE,45,0.0,2.0,79,0.00,,,0.00,meteohub,2013-03-29 12:22:00,
2013-03-29 06:27:00,20.7,15.3,31.83,South,180,0.0,2.0,79,0.00,,,0.00,meteohub,2013-03-29 12:27:00,
2013-03-29 06:32:00,20.5,15.1,31.82,SW,225,1.0,2.0,79,0.00,,,0.00,meteohub,2013-03-29 12:32:00,
2013-03-29 06:38:00,20.3,14.9,31.82,SW,225,0.0,2.0,79,0.00,,,0.00,meteohub,2013-03-29 12:38:00,
2013-03-29 06:44:00,20.1,14.4,31.83,SW,225,0.0,2.0,78,0.00,,,0.00,meteohub,2013-03-29 12:44:00,
2013-03-29 06:50:00,20.1,14.4,31.83,SW,225,0.0,2.0,78,0.00,,,0.00,meteohub,2013-03-29 12:50:00,
2013-03-29 06:55:00,20.3,14.5,31.83,South,180,1.0,0.0,78,0.00,,,0.00,meteohub,2013-03-29 12:55:00,
2013-03-29 07:01:00,20.3,14.5,31.83,West,270,1.0,2.0,78,0.00,,,0.00,meteohub,2013-03-29 13:01:00,
2013-03-29 07:06:00,20.7,15.3,31.83,SE,135,2.0,2.0,79,0.00,,,0.00,meteohub,2013-03-29 13:06:00,
2013-03-29 07:12:00,21.2,15.4,31.84,South,180,1.0,2.0,78,0.00,,,0.00,meteohub,2013-03-29 13:12:00,
2013-03-29 07:17:00,21.6,15.8,31.84,South,180,2.0,2.0,78,0.00,,,0.00,meteohub,2013-03-29 13:17:00,
2013-03-29 07:22:00,21.9,16.2,31.84,SW,225,2.0,2.0,78,0.00,,,0.00,meteohub,2013-03-29 13:22:00,
2013-03-29 07:27:00,22.6,16.9,31.83,North,0,2.0,2.0,78,0.00,,,0.00,meteohub,2013-03-29 13:27:00,
2013-03-29 07:32:00,23.4,17.2,31.84,SE,135,2.0,2.0,77,0.00,,,0.00,meteohub,2013-03-29 13:32:00,
2013-03-29 07:37:00,23.5,17.1,31.84,SW,225,2.0,2.0,76,0.00,,,0.00,meteohub,2013-03-29 13:37:00,
2013-03-29 07:43:00,23.4,16.7,31.84,SW,225,2.0,2.0,75,0.00,,,0.00,meteohub,2013-03-29 13:43:00,
2013-03-29 07:48:00,23.5,16.7,31.84,West,270,0.0,3.0,75,0.00,,,0.00,meteohub,2013-03-29 13:48:00,
2013-03-29 07:53:00,23.5,16.5,31.84,SW,225,0.0,4.0,74,0.00,,,0.00,meteohub,2013-03-29 13:53:00,
2013-03-29 07:59:00,23.7,16.7,31.84,South,180,2.0,4.0,74,0.00,,,0.00,meteohub,2013-03-29 13:59:00,
2013-03-29 08:05:00,23.7,16.7,31.84,SW,225,1.0,4.0,74,0.00,,,0.00,meteohub,2013-03-29 14:05:00,
2013-03-29 08:10:00,24.3,17.2,31.84,SW,225,1.0,4.0,74,0.00,,,0.00,meteohub,2013-03-29 14:10:00,
2013-03-29 08:16:00,25.0,18.0,31.84,SW,225,2.0,3.0,74,0.00,,,0.00,meteohub,2013-03-29 14:16:00,
2013-03-29 08:21:00,26.2,19.0,31.84,SW,225,2.0,3.0,74,0.00,,,0.00,meteohub,2013-03-29 14:21:00,
2013-03-29 08:26:00,27.9,20.3,31.84,West,270,2.0,3.0,73,0.00,,,0.00,meteohub,2013-03-29 14:26:00,
2013-03-29 08:32:00,29.1,22.5,31.84,West,270,3.0,3.0,76,0.00,,,0.00,meteohub,2013-03-29 14:32:00,
2013-03-29 08:37:00,30.2,23.0,31.84,NW,315,4.0,4.0,74,0.00,,,0.00,meteohub,2013-03-29 14:37:00,
2013-03-29 08:42:00,31.1,23.5,31.84,West,270,3.0,4.0,73,0.00,,,0.00,meteohub,2013-03-29 14:42:00,
2013-03-29 08:47:00,32.2,23.5,31.84,NW,315,2.0,4.0,70,0.00,,,0.00,meteohub,2013-03-29 14:47:00,
2013-03-29 08:52:00,32.7,23.7,31.84,NE,45,3.0,4.0,69,0.00,,,0.00,meteohub,2013-03-29 14:52:00,
2013-03-29 08:58:00,33.4,24.1,31.84,North,0,1.0,4.0,68,0.00,,,0.00,meteohub,2013-03-29 14:58:00,
2013-03-29 09:03:00,35.1,25.2,31.83,NE,45,2.0,4.0,67,0.00,,,0.00,meteohub,2013-03-29 15:03:00,
2013-03-29 09:09:00,35.6,23.9,31.84,North,0,2.0,4.0,62,0.00,,,0.00,meteohub,2013-03-29 15:09:00,
2013-03-29 09:15:00,35.1,23.7,31.84,East,90,3.0,3.0,63,0.00,,,0.00,meteohub,2013-03-29 15:15:00,
2013-03-29 09:21:00,35.4,23.7,31.84,North,0,1.0,3.0,62,0.00,,,0.00,meteohub,2013-03-29 15:21:00,
2013-03-29 09:27:00,35.4,23.7,31.85,NNE,23,2.0,4.0,62,0.00,,,0.00,meteohub,2013-03-29 15:27:00,
2013-03-29 09:32:00,34.5,22.8,31.85,NE,45,2.0,4.0,62,0.00,,,0.00,meteohub,2013-03-29 15:32:00,
2013-03-29 09:37:00,34.7,23.4,31.84,NE,45,3.0,4.0,63,0.00,,,0.00,meteohub,2013-03-29 15:37:00,
2013-03-29 09:42:00,35.8,24.1,31.84,North,0,2.0,4.0,62,0.00,,,0.00,meteohub,2013-03-29 15:42:00,
2013-03-29 09:47:00,37.4,26.4,31.84,North,0,2.0,4.0,64,0.00,,,0.00,meteohub,2013-03-29 15:47:00,
2013-03-29 09:52:00,38.8,26.6,31.84,NE,45,4.0,4.0,61,0.00,,,0.00,meteohub,2013-03-29 15:52:00,
2013-03-29 09:57:00,39.7,25.7,31.84,SE,135,2.0,4.0,57,0.00,,,0.00,meteohub,2013-03-29 15:57:00,
2013-03-29 10:02:00,40.1,26.1,31.84,East,90,3.0,4.0,57,0.00,,,0.00,meteohub,2013-03-29 16:02:00,
2013-03-29 10:08:00,40.3,25.9,31.83,ENE,68,4.0,4.0,56,0.00,,,0.00,meteohub,2013-03-29 16:08:00,
2013-03-29 10:13:00,39.9,25.0,31.83,North,0,3.0,6.0,55,0.00,,,0.00,meteohub,2013-03-29 16:13:00,
2013-03-29 10:19:00,40.3,25.0,31.83,North,0,4.0,6.0,54,0.00,,,0.00,meteohub,2013-03-29 16:19:00,
2013-03-29 10:24:00,40.8,25.5,31.83,NNE,23,4.0,6.0,54,0.00,,,0.00,meteohub,2013-03-29 16:24:00,
2013-03-29 10:29:00,41.4,25.5,31.83,NNE,23,5.0,6.0,53,0.00,,,0.00,meteohub,2013-03-29 16:29:00,
2013-03-29 10:35:00,41.9,25.5,31.83,NE,45,4.0,6.0,52,0.00,,,0.00,meteohub,2013-03-29 16:35:00,
2013-03-29 10:41:00,40.8,24.1,31.83,SE,135,2.0,5.0,51,0.00,,,0.00,meteohub,2013-03-29 16:41:00,
2013-03-29 10:46:00,41.0,25.2,31.83,North,0,4.0,5.0,53,0.00,,,0.00,meteohub,2013-03-29 16:46:00,
2013-03-29 10:52:00,41.2,25.3,31.83,West,270,3.0,4.0,53,0.00,,,0.00,meteohub,2013-03-29 16:52:00,
2013-03-29 10:57:00,42.8,26.4,31.83,SE,135,4.0,4.0,52,0.00,,,0.00,meteohub,2013-03-29 16:57:00,
2013-03-29 11:02:00,43.9,27.0,31.83,NW,315,2.0,5.0,51,0.00,,,0.00,meteohub,2013-03-29 17:02:00,
2013-03-29 11:07:00,44.6,26.1,31.83,NE,45,3.0,5.0,48,0.00,,,0.00,meteohub,2013-03-29 17:07:00,
2013-03-29 11:12:00,45.1,26.6,31.84,East,90,4.0,6.0,48,0.00,,,0.00,meteohub,2013-03-29 17:12:00,
2013-03-29 11:18:00,44.1,26.1,31.83,East,90,6.0,8.0,49,0.00,,,0.00,meteohub,2013-03-29 17:18:00,
2013-03-29 11:23:00,43.7,26.8,31.83,NE,45,4.0,11.0,51,0.00,,,0.00,meteohub,2013-03-29 17:23:00,
2013-03-29 11:28:00,44.2,27.7,31.83,NE,45,6.0,11.0,52,0.00,,,0.00,meteohub,2013-03-29 17:28:00,
2013-03-29 11:33:00,43.9,27.3,31.83,SE,135,4.0,11.0,52,0.00,,,0.00,meteohub,2013-03-29 17:33:00,
2013-03-29 11:39:00,44.1,27.5,31.83,NNE,23,6.0,8.0,52,0.00,,,0.00,meteohub,2013-03-29 17:39:00,
2013-03-29 11:45:00,44.8,27.7,31.83,West,270,4.0,8.0,51,0.00,,,0.00,meteohub,2013-03-29 17:45:00,
2013-03-29 11:50:00,44.8,26.8,31.82,North,0,4.0,6.0,49,0.00,,,0.00,meteohub,2013-03-29 17:50:00,
2013-03-29 11:56:00,45.5,27.5,31.82,North,0,4.0,8.0,49,0.00,,,0.00,meteohub,2013-03-29 17:56:00,
2013-03-29 12:01:00,45.9,24.1,31.82,SW,225,8.0,8.0,42,0.00,,,0.00,meteohub,2013-03-29 18:01:00,
2013-03-29 12:07:00,45.9,24.1,31.82,SW,225,8.0,11.0,42,0.00,,,0.00,meteohub,2013-03-29 18:07:00,
2013-03-29 12:12:00,45.1,21.0,31.82,NW,315,6.0,12.0,38,0.00,,,0.00,meteohub,2013-03-29 18:12:00,
2013-03-29 12:17:00,45.7,20.3,31.82,WSW,248,7.0,12.0,36,0.00,,,0.00,meteohub,2013-03-29 18:17:00,
2013-03-29 12:22:00,46.2,20.1,31.82,West,270,10.0,12.0,35,0.00,,,0.00,meteohub,2013-03-29 18:22:00,
2013-03-29 12:27:00,46.0,18.5,31.82,West,270,5.0,10.0,33,0.00,,,0.00,meteohub,2013-03-29 18:27:00,
2013-03-29 12:32:00,46.2,18.0,31.82,SW,225,8.0,10.0,32,0.00,,,0.00,meteohub,2013-03-29 18:32:00,
2013-03-29 12:37:00,46.2,18.0,31.81,WNW,293,9.0,12.0,32,0.00,,,0.00,meteohub,2013-03-29 18:37:00,
2013-03-29 12:42:00,47.1,19.4,31.81,West,270,12.0,12.0,33,0.00,,,0.00,meteohub,2013-03-29 18:42:00,
2013-03-29 12:48:00,47.1,18.0,31.82,WSW,248,4.0,12.0,31,0.00,,,0.00,meteohub,2013-03-29 18:48:00,
2013-03-29 12:53:00,47.8,19.4,31.82,SW,225,7.0,12.0,32,0.00,,,0.00,meteohub,2013-03-29 18:53:00,
2013-03-29 12:58:00,48.7,20.1,31.81,North,0,5.0,12.0,32,0.00,,,0.00,meteohub,2013-03-29 18:58:00,
2013-03-29 13:04:00,48.2,18.1,31.81,West,270,8.0,12.0,30,0.00,,,0.00,meteohub,2013-03-29 19:04:00,
2013-03-29 13:09:00,48.7,19.4,31.81,SW,225,5.0,11.0,31,0.00,,,0.00,meteohub,2013-03-29 19:09:00,
2013-03-29 13:15:00,49.8,22.6,31.81,SW,225,7.0,11.0,34,0.00,,,0.00,meteohub,2013-03-29 19:15:00,
2013-03-29 13:20:00,50.2,22.1,31.81,South,180,7.0,11.0,33,0.00,,,0.00,meteohub,2013-03-29 19:20:00,
2013-03-29 13:25:00,49.1,21.9,31.81,West,270,4.0,10.0,34,0.00,,,0.00,meteohub,2013-03-29 19:25:00,
2013-03-29 13:31:00,47.8,21.6,31.81,NW,315,11.0,11.0,35,0.00,,,0.00,meteohub,2013-03-29 19:31:00,
2013-03-29 13:36:00,47.3,21.7,31.81,South,180,4.0,11.0,36,0.00,,,0.00,meteohub,2013-03-29 19:36:00,
2013-03-29 13:41:00,48.9,23.2,31.81,NW,315,5.0,11.0,36,0.00,,,0.00,meteohub,2013-03-29 19:41:00,
2013-03-29 13:47:00,49.5,23.5,31.81,SW,225,4.0,11.0,36,0.00,,,0.00,meteohub,2013-03-29 19:47:00,
2013-03-29 13:52:00,48.9,22.5,31.81,West,270,12.0,12.0,35,0.00,,,0.00,meteohub,2013-03-29 19:52:00,
2013-03-29 13:57:00,48.0,22.3,31.81,NW,315,4.0,12.0,36,0.00,,,0.00,meteohub,2013-03-29 19:57:00,
2013-03-29 14:03:00,48.6,22.8,31.81,West,270,7.0,12.0,36,0.00,,,0.00,meteohub,2013-03-29 20:03:00,
2013-03-29 14:09:00,48.2,23.7,31.81,East,90,4.0,12.0,38,0.00,,,0.00,meteohub,2013-03-29 20:09:00,
2013-03-29 14:14:00,46.9,22.6,31.81,NW,315,5.0,7.0,38,0.00,,,0.00,meteohub,2013-03-29 20:14:00,
2013-03-29 14:20:00,46.4,22.1,31.81,NW,315,4.0,7.0,38,0.00,,,0.00,meteohub,2013-03-29 20:20:00,
2013-03-29 14:25:00,46.8,21.9,31.81,NW,315,7.0,7.0,37,0.00,,,0.00,meteohub,2013-03-29 20:25:00,
2013-03-29 14:31:00,47.3,23.0,31.80,NE,45,6.0,9.0,38,0.00,,,0.00,meteohub,2013-03-29 20:31:00,
2013-03-29 14:37:00,47.1,22.1,31.80,NW,315,5.0,9.0,37,0.00,,,0.00,meteohub,2013-03-29 20:37:00,
2013-03-29 14:42:00,47.5,23.2,31.80,East,90,8.0,8.0,38,0.00,,,0.00,meteohub,2013-03-29 20:42:00,
2013-03-29 14:47:00,46.4,22.1,31.81,NW,315,8.0,8.0,38,0.00,,,0.00,meteohub,2013-03-29 20:47:00,
2013-03-29 14:52:00,45.0,22.6,31.81,SW,225,25.0,25.0,41,0.00,,,0.00,meteohub,2013-03-29 20:52:00,
2013-03-29 14:58:00,40.1,27.0,31.82,West,270,9.0,25.0,59,0.00,,,0.00,meteohub,2013-03-29 20:58:00,
2013-03-29 15:03:00,38.7,27.1,31.81,South,180,7.0,25.0,63,0.00,,,0.00,meteohub,2013-03-29 21:03:00,
2013-03-29 15:09:00,39.4,27.5,31.80,SE,135,2.0,25.0,62,0.00,,,0.00,meteohub,2013-03-29 21:09:00,
2013-03-29 15:14:00,41.7,28.0,31.80,East,90,4.0,14.0,58,0.00,,,0.00,meteohub,2013-03-29 21:14:00,
2013-03-29 15:20:00,43.0,27.5,31.79,NE,45,4.0,7.0,54,0.00,,,0.00,meteohub,2013-03-29 21:20:00,
2013-03-29 15:25:00,44.1,28.0,31.79,NW,315,4.0,4.0,53,0.00,,,0.00,meteohub,2013-03-29 21:25:00,
2013-03-29 15:30:00,45.3,26.2,31.79,NW,315,4.0,7.0,47,0.00,,,0.00,meteohub,2013-03-29 21:30:00,
2013-03-29 15:36:00,47.1,27.3,31.80,West,270,5.0,7.0,46,0.00,,,0.00,meteohub,2013-03-29 21:36:00,
2013-03-29 15:41:00,48.6,26.4,31.80,NW,315,4.0,7.0,42,0.00,,,0.00,meteohub,2013-03-29 21:41:00,
2013-03-29 15:47:00,46.8,25.5,31.81,NW,315,11.0,11.0,43,0.00,,,0.00,meteohub,2013-03-29 21:47:00,
2013-03-29 15:52:00,41.7,26.8,31.81,West,270,10.0,19.0,55,0.00,,,0.00,meteohub,2013-03-29 21:52:00,
2013-03-29 15:57:00,38.3,28.2,31.81,SW,225,5.0,19.0,67,0.00,,,0.00,meteohub,2013-03-29 21:57:00,
2013-03-29 16:03:00,37.6,28.4,31.81,South,180,5.0,19.0,69,0.00,,,0.00,meteohub,2013-03-29 22:03:00,
2013-03-29 16:08:00,39.6,29.1,31.81,ENE,68,2.0,19.0,66,0.00,,,0.00,meteohub,2013-03-29 22:08:00,
2013-03-29 16:14:00,42.3,28.9,31.80,East,90,4.0,8.0,59,0.00,,,0.00,meteohub,2013-03-29 22:14:00,
2013-03-29 16:19:00,44.2,27.7,31.80,East,90,4.0,5.0,52,0.00,,,0.00,meteohub,2013-03-29 22:19:00,
2013-03-29 16:24:00,45.3,25.2,31.81,East,90,5.0,6.0,45,0.00,,,0.00,meteohub,2013-03-29 22:24:00,
2013-03-29 16:29:00,46.2,25.5,31.81,SE,135,2.0,6.0,44,0.00,,,0.00,meteohub,2013-03-29 22:29:00,
2013-03-29 16:35:00,46.8,27.1,31.81,NE,45,6.0,6.0,46,0.00,,,0.00,meteohub,2013-03-29 22:35:00,
2013-03-29 16:41:00,47.5,24.4,31.81,West,270,14.0,14.0,40,0.00,,,0.00,meteohub,2013-03-29 22:41:00,
2013-03-29 16:46:00,48.0,24.3,31.81,SW,225,8.0,15.0,39,0.00,,,0.00,meteohub,2013-03-29 22:46:00,
2013-03-29 16:52:00,47.3,27.5,31.81,East,90,4.0,19.0,46,0.00,,,0.00,meteohub,2013-03-29 22:52:00,
2013-03-29 16:57:00,46.9,26.8,31.81,NW,315,11.0,19.0,45,0.00,,,0.00,meteohub,2013-03-29 22:57:00,
2013-03-29 17:02:00,46.4,26.2,31.81,North,0,4.0,15.0,45,0.00,,,0.00,meteohub,2013-03-29 23:02:00,
2013-03-29 17:07:00,46.4,26.2,31.81,West,270,6.0,14.0,45,0.00,,,0.00,meteohub,2013-03-29 23:07:00,
2013-03-29 17:12:00,46.6,25.9,31.81,NW,315,11.0,14.0,44,0.00,,,0.00,meteohub,2013-03-29 23:12:00,
2013-03-29 17:17:00,46.8,24.3,31.81,NW,315,11.0,11.0,41,0.00,,,0.00,meteohub,2013-03-29 23:17:00,
2013-03-29 17:23:00,46.4,22.1,31.81,WNW,293,7.0,11.0,38,0.00,,,0.00,meteohub,2013-03-29 23:23:00,
2013-03-29 17:29:00,45.0,22.6,31.81,West,270,8.0,11.0,41,0.00,,,0.00,meteohub,2013-03-29 23:29:00,
2013-03-29 17:35:00,43.3,22.3,31.82,West,270,6.0,11.0,43,0.00,,,0.00,meteohub,2013-03-29 23:35:00,
2013-03-29 17:40:00,42.1,23.4,31.83,West,270,7.0,8.0,47,0.00,,,0.00,meteohub,2013-03-29 23:40:00,
2013-03-29 17:46:00,40.3,26.6,31.83,NW,315,8.0,9.0,58,0.00,,,0.00,meteohub,2013-03-29 23:46:00,
2013-03-29 17:51:00,38.3,26.8,31.83,NW,315,3.0,9.0,63,0.00,,,0.00,meteohub,2013-03-29 23:51:00,
2013-03-29 17:57:00,37.6,27.0,31.83,NW,315,2.0,9.0,65,0.00,,,0.00,meteohub,2013-03-29 23:57:00,
2013-03-29 18:02:00,37.4,26.8,31.83,North,0,1.0,8.0,65,0.00,,,0.00,meteohub,2013-03-30 00:02:00,
2013-03-29 18:07:00,37.6,27.0,31.83,North,0,5.0,5.0,65,0.00,,,0.00,meteohub,2013-03-30 00:07:00,
2013-03-29 18:13:00,37.8,27.5,31.83,NW,315,3.0,5.0,66,0.00,,,0.00,meteohub,2013-03-30 00:13:00,
2013-03-29 18:18:00,37.6,27.3,31.83,North,0,3.0,5.0,66,0.00,,,0.00,meteohub,2013-03-30 00:18:00,
2013-03-29 18:24:00,37.0,25.2,31.83,NE,45,2.0,5.0,62,0.00,,,0.00,meteohub,2013-03-30 00:24:00,
2013-03-29 18:29:00,36.5,24.8,31.82,NE,45,2.0,4.0,62,0.00,,,0.00,meteohub,2013-03-30 00:29:00,
2013-03-29 18:35:00,36.1,24.4,31.83,NE,45,2.0,4.0,62,0.00,,,0.00,meteohub,2013-03-30 00:35:00,
2013-03-29 18:40:00,35.8,24.1,31.82,NE,45,1.0,4.0,62,0.00,,,0.00,meteohub,2013-03-30 00:40:00,
2013-03-29 18:46:00,35.6,23.9,31.82,NW,315,1.0,3.0,62,0.00,,,0.00,meteohub,2013-03-30 00:46:00,
2013-03-29 18:52:00,35.2,24.3,31.83,East,90,0.0,3.0,64,0.00,,,0.00,meteohub,2013-03-30 00:52:00,
2013-03-29 18:57:00,35.1,23.7,31.83,West,270,2.0,3.0,63,0.00,,,0.00,meteohub,2013-03-30 00:57:00,
2013-03-29 19:02:00,34.9,23.9,31.83,East,90,0.0,3.0,64,0.00,,,0.00,meteohub,2013-03-30 01:02:00,
2013-03-29 19:07:00,34.7,23.7,31.83,East,90,0.0,2.0,64,0.00,,,0.00,meteohub,2013-03-30 01:07:00,
2013-03-29 19:12:00,34.3,23.4,31.83,SE,135,0.0,2.0,64,0.00,,,0.00,meteohub,2013-03-30 01:12:00,
2013-03-29 19:17:00,34.0,23.0,31.83,SE,135,1.0,2.0,64,0.00,,,0.00,meteohub,2013-03-30 01:17:00,
2013-03-29 19:22:00,33.8,23.0,31.83,SE,135,0.0,2.0,64,0.00,,,0.00,meteohub,2013-03-30 01:22:00,
2013-03-29 19:27:00,33.6,23.2,31.83,SE,135,2.0,2.0,65,0.00,,,0.00,meteohub,2013-03-30 01:27:00,
2013-03-29 19:33:00,33.4,23.4,31.83,West,270,3.0,3.0,66,0.00,,,0.00,meteohub,2013-03-30 01:33:00,
2013-03-29 19:38:00,33.3,23.2,31.83,East,90,2.0,3.0,66,0.00,,,0.00,meteohub,2013-03-30 01:38:00,
2013-03-29 19:44:00,33.3,23.2,31.84,North,0,1.0,3.0,66,0.00,,,0.00,meteohub,2013-03-30 01:44:00,
2013-03-29 19:50:00,33.4,23.0,31.83,East,90,1.0,3.0,65,0.00,,,0.00,meteohub,2013-03-30 01:50:00,
2013-03-29 19:55:00,33.4,22.6,31.83,SW,225,3.0,3.0,64,0.00,,,0.00,meteohub,2013-03-30 01:55:00,
2013-03-29 20:00:00,33.6,23.2,31.83,SE,135,2.0,4.0,65,0.00,,,0.00,meteohub,2013-03-30 02:00:00,
2013-03-29 20:06:00,33.6,23.2,31.83,SE,135,2.0,4.0,65,0.00,,,0.00,meteohub,2013-03-30 02:06:00,
2013-03-29 20:12:00,33.4,22.6,31.83,South,180,2.0,4.0,64,0.00,,,0.00,meteohub,2013-03-30 02:12:00,
2013-03-29 20:17:00,33.1,22.3,31.83,West,270,2.0,2.0,64,0.00,,,0.00,meteohub,2013-03-30 02:17:00,
2013-03-29 20:22:00,32.9,22.1,31.83,East,90,2.0,2.0,64,0.00,,,0.00,meteohub,2013-03-30 02:22:00,
2013-03-29 20:27:00,32.5,21.7,31.83,NE,45,4.0,4.0,64,0.00,,,0.00,meteohub,2013-03-30 02:27:00,
2013-03-29 20:32:00,32.2,22.1,31.83,WNW,293,4.0,4.0,66,0.00,,,0.00,meteohub,2013-03-30 02:32:00,
2013-03-29 20:37:00,31.6,22.3,31.83,East,90,4.0,4.0,68,0.00,,,0.00,meteohub,2013-03-30 02:37:00,
2013-03-29 20:42:00,31.6,23.0,31.84,NW,315,2.0,4.0,70,0.00,,,0.00,meteohub,2013-03-30 02:42:00,
2013-03-29 20:47:00,31.5,22.8,31.83,SE,135,2.0,4.0,70,0.00,,,0.00,meteohub,2013-03-30 02:47:00,
2013-03-29 20:52:00,30.9,22.3,31.84,West,270,1.0,4.0,70,0.00,,,0.00,meteohub,2013-03-30 02:52:00,
2013-03-29 20:58:00,30.6,21.9,31.84,South,180,0.0,2.0,70,0.00,,,0.00,meteohub,2013-03-30 02:58:00,
2013-03-29 21:03:00,30.2,21.6,31.84,SW,225,3.0,3.0,70,0.00,,,0.00,meteohub,2013-03-30 03:03:00,
2013-03-29 21:09:00,29.7,22.6,31.84,West,270,3.0,3.0,75,0.00,,,0.00,meteohub,2013-03-30 03:09:00,
2013-03-29 21:14:00,29.7,22.6,31.84,West,270,2.0,6.0,75,0.00,,,0.00,meteohub,2013-03-30 03:14:00,
2013-03-29 21:20:00,29.3,22.3,31.84,South,180,2.0,6.0,75,0.00,,,0.00,meteohub,2013-03-30 03:20:00,
2013-03-29 21:26:00,29.3,22.3,31.85,West,270,4.0,4.0,75,0.00,,,0.00,meteohub,2013-03-30 03:26:00,
2013-03-29 21:31:00,29.5,22.8,31.85,South,180,2.0,4.0,76,0.00,,,0.00,meteohub,2013-03-30 03:31:00,
2013-03-29 21:37:00,30.2,23.2,31.85,NE,45,2.0,4.0,75,0.00,,,0.00,meteohub,2013-03-30 03:37:00,
2013-03-29 21:42:00,30.7,23.4,31.84,NE,45,1.0,4.0,74,0.00,,,0.00,meteohub,2013-03-30 03:42:00,
2013-03-29 21:47:00,31.1,23.7,31.85,NW,315,2.0,3.0,74,0.00,,,0.00,meteohub,2013-03-30 03:47:00,
2013-03-29 21:52:00,31.1,23.5,31.85,NW,315,0.0,3.0,73,0.00,,,0.00,meteohub,2013-03-30 03:52:00,
2013-03-29 21:57:00,30.9,23.4,31.85,South,180,2.0,3.0,73,0.00,,,0.00,meteohub,2013-03-30 03:57:00,
2013-03-29 22:00:00,30.7,22.8,31.85,East,90,1.0,3.0,72,0.00,,,0.00,meteohub,2013-03-30 04:00:00,
2013-03-29 22:02:00,30.7,22.8,31.85,East,90,1.0,3.0,72,0.00,,,0.00,meteohub,2013-03-30 04:02:00,
2013-03-29 22:07:00,30.7,22.8,31.85,East,90,1.0,2.0,72,0.00,,,0.00,meteohub,2013-03-30 04:07:00,
2013-03-29 22:09:00,30.0,22.5,31.85,East,90,2.0,2.0,73,0.00,,,0.00,meteohub,2013-03-30 04:09:00,
2013-03-29 22:14:00,29.7,22.5,31.85,North,0,1.0,2.0,74,0.00,,,0.00,meteohub,2013-03-30 04:14:00,
2013-03-29 22:20:00,29.3,22.3,31.85,North,0,1.0,2.0,75,0.00,,,0.00,meteohub,2013-03-30 04:20:00,
2013-03-29 22:26:00,29.3,22.3,31.85,NW,315,2.0,2.0,75,0.00,,,0.00,meteohub,2013-03-30 04:26:00,
2013-03-29 22:32:00,29.5,22.8,31.84,NW,315,1.0,2.0,76,0.00,,,0.00,meteohub,2013-03-30 04:32:00,
2013-03-29 22:37:00,29.1,22.5,31.84,South,180,2.0,3.0,76,0.00,,,0.00,meteohub,2013-03-30 04:37:00,
2013-03-29 22:42:00,28.9,22.3,31.84,SW,225,2.0,3.0,76,0.00,,,0.00,meteohub,2013-03-30 04:42:00,
2013-03-29 22:47:00,28.6,21.9,31.85,SSW,203,2.0,3.0,76,0.00,,,0.00,meteohub,2013-03-30 04:47:00,
2013-03-29 22:52:00,28.6,22.3,31.85,South,180,1.0,2.0,77,0.00,,,0.00,meteohub,2013-03-30 04:52:00,
2013-03-29 22:57:00,28.6,22.3,31.84,South,180,0.0,2.0,77,0.00,,,0.00,meteohub,2013-03-30 04:57:00,
2013-03-29 23:02:00,28.8,22.5,31.84,SW,225,0.0,2.0,77,0.00,,,0.00,meteohub,2013-03-30 05:02:00,
2013-03-29 23:08:00,29.1,22.8,31.84,SW,225,2.0,2.0,77,0.00,,,0.00,meteohub,2013-03-30 05:08:00,
2013-03-29 23:13:00,29.1,22.8,31.84,South,180,1.0,2.0,77,0.00,,,0.00,meteohub,2013-03-30 05:13:00,
2013-03-29 23:18:00,29.1,22.5,31.84,West,270,2.0,2.0,76,0.00,,,0.00,meteohub,2013-03-30 05:18:00,
2013-03-29 23:23:00,28.9,22.3,31.84,West,270,0.0,2.0,76,0.00,,,0.00,meteohub,2013-03-30 05:23:00,
2013-03-29 23:28:00,29.1,22.5,31.85,West,270,2.0,2.0,76,0.00,,,0.00,meteohub,2013-03-30 05:28:00,
2013-03-29 23:34:00,29.1,22.5,31.84,West,270,0.0,2.0,76,0.00,,,0.00,meteohub,2013-03-30 05:34:00,
2013-03-29 23:39:00,29.1,22.5,31.84,West,270,1.0,2.0,76,0.00,,,0.00,meteohub,2013-03-30 05:39:00,
2013-03-29 23:44:00,28.8,22.1,31.85,SW,225,2.0,2.0,76,0.00,,,0.00,meteohub,2013-03-30 05:44:00,
2013-03-29 23:49:00,28.8,22.1,31.84,West,270,1.0,2.0,76,0.00,,,0.00,meteohub,2013-03-30 05:49:00,
2013-03-29 23:55:00,28.9,22.6,31.84,NE,45,1.0,2.0,77,0.00,,,0.00,meteohub,2013-03-30 05:55:00,